createdAt,value
2019-01-29T00:01:07.123Z,89.82
2019-01-29T00:02:17.240Z,89.82
2019-01-29T00:03:27.346Z,89.82
2019-01-29T00:04:37.453Z,90.01
2019-01-29T00:05:47.559Z,89.49
2019-01-29T00:06:57.663Z,89.72
2019-01-29T00:08:07.776Z,89.63
2019-01-29T00:09:17.973Z,90.1
2019-01-29T00:10:28.073Z,89.72
2019-01-29T00:11:37.921Z,89.82
2019-01-29T00:12:47.786Z,89.2
2019-01-29T00:13:57.902Z,89.3
2019-01-29T00:15:08.124Z,88.87
2019-01-29T00:16:18.239Z,89.06
2019-01-29T00:17:28.339Z,88.59
2019-01-29T00:18:38.447Z,88.59
2019-01-29T00:19:48.536Z,88.02
2019-01-29T00:20:58.375Z,87.73
2019-01-29T00:22:08.504Z,87.92
2019-01-29T00:23:18.621Z,87.64
2019-01-29T00:24:28.735Z,87.54
2019-01-29T00:25:38.839Z,87.07
2019-01-29T00:26:48.939Z,87.64
2019-01-29T00:27:59.046Z,87.45
2019-01-29T00:29:09.205Z,87.45
2019-01-29T00:30:19.311Z,87.83
2019-01-29T00:31:30.046Z,88.02
2019-01-29T00:32:40.152Z,87.64
2019-01-29T00:33:50.242Z,88.35
2019-01-29T00:35:00.338Z,89.2
2019-01-29T00:36:10.654Z,89.01
2019-01-29T00:37:20.772Z,89.2
2019-01-29T00:38:30.880Z,89.77
2019-01-29T00:39:40.742Z,89.96
2019-01-29T00:40:50.844Z,89.96
2019-01-29T00:42:00.943Z,90.15
2019-01-29T00:43:11.057Z,90.15
2019-01-29T00:44:21.162Z,90.44
2019-01-29T00:45:31.267Z,90.25
2019-01-29T00:46:41.362Z,90.53
2019-01-29T00:47:51.478Z,90.44
2019-01-29T00:49:01.323Z,90.63
2019-01-29T00:50:11.431Z,90.63
2019-01-29T00:51:21.534Z,90.53
2019-01-29T00:52:31.397Z,90.53
2019-01-29T00:53:49.509Z,90.44
2019-01-29T00:54:59.615Z,90.63
2019-01-29T00:56:09.717Z,90.81
2019-01-29T00:57:20.038Z,90.53
2019-01-29T00:58:30.154Z,90.81
2019-01-29T00:59:40.253Z,90.34
2019-01-29T01:00:50.353Z,89.96
2019-01-29T01:02:00.672Z,90.25
2019-01-29T01:03:10.782Z,89.77
2019-01-29T01:04:20.863Z,89.58
2019-01-29T01:05:30.963Z,89.77
2019-01-29T01:06:41.063Z,89.77
2019-01-29T01:07:51.152Z,89.49
2019-01-29T01:09:01.256Z,89.11
2019-01-29T01:10:11.368Z,88.92
2019-01-29T01:11:21.461Z,88.64
2019-01-29T01:12:31.113Z,88.07
2019-01-29T01:13:41.206Z,87.5
2019-01-29T01:14:51.301Z,87.59
2019-01-29T01:16:01.412Z,87.5
2019-01-29T01:17:11.510Z,87.02
2019-01-29T01:18:21.614Z,86.83
2019-01-29T01:19:31.706Z,86.65
2019-01-29T01:20:41.817Z,86.36
2019-01-29T01:21:51.921Z,86.46
2019-01-29T01:23:02.039Z,86.46
2019-01-29T01:24:12.142Z,86.27
2019-01-29T01:25:21.986Z,86.46
2019-01-29T01:26:32.082Z,86.36
2019-01-29T01:27:42.197Z,86.65
2019-01-29T01:28:52.294Z,86.18
2019-01-29T01:30:02.146Z,86.18
2019-01-29T01:31:12.258Z,86.27
2019-01-29T01:32:22.345Z,86.36
2019-01-29T01:33:32.459Z,86.65
2019-01-29T01:34:42.561Z,86.65
2019-01-29T01:35:52.755Z,86.18
2019-01-29T01:37:02.848Z,86.36
2019-01-29T01:38:12.959Z,86.08
2019-01-29T01:39:23.059Z,86.41
2019-01-29T01:40:33.156Z,86.03
2019-01-29T01:41:43.259Z,85.93
2019-01-29T01:42:53.364Z,86.27
2019-01-29T01:44:03.462Z,86.08
2019-01-29T01:45:13.609Z,86.18
2019-01-29T01:46:23.738Z,85.89
2019-01-29T01:47:34.093Z,85.99
2019-01-29T01:48:44.470Z,86.12
2019-01-29T01:49:54.579Z,85.99
2019-01-29T01:51:04.682Z,86.12
2019-01-29T01:52:15.021Z,85.8
2019-01-29T01:53:25.224Z,85.61
2019-01-29T01:54:35.793Z,85.84
2019-01-29T01:55:45.908Z,86.03
2019-01-29T01:56:56.233Z,85.8
2019-01-29T01:58:06.341Z,85.7
2019-01-29T01:59:16.689Z,86.18
2019-01-29T02:00:27.041Z,85.99
2019-01-29T02:01:37.276Z,85.99
2019-01-29T02:02:47.380Z,86.41
2019-01-29T02:03:57.563Z,86.31
2019-01-29T02:05:07.441Z,86.22
2019-01-29T02:06:17.917Z,86.22
2019-01-29T02:07:28.045Z,85.84
2019-01-29T02:08:38.139Z,86.03
2019-01-29T02:09:48.252Z,86.03
2019-01-29T02:10:58.351Z,85.93
2019-01-29T02:12:08.459Z,85.99
2019-01-29T02:13:18.572Z,85.74
2019-01-29T02:14:28.679Z,85.99
2019-01-29T02:15:38.773Z,85.74
2019-01-29T02:16:48.867Z,86.03
2019-01-29T02:17:58.958Z,85.93
2019-01-29T02:19:09.105Z,86.03
2019-01-29T02:20:19.296Z,85.61
2019-01-29T02:21:29.395Z,85.65
2019-01-29T02:22:39.499Z,86.5
2019-01-29T02:23:49.602Z,86.27
2019-01-29T02:24:59.707Z,86.41
2019-01-29T02:26:09.807Z,86.22
2019-01-29T02:27:19.898Z,86.12
2019-01-29T02:28:30.000Z,86.41
2019-01-29T02:29:40.141Z,86.12
2019-01-29T02:30:50.249Z,86.41
2019-01-29T02:32:00.359Z,86.69
2019-01-29T02:33:10.464Z,86.31
2019-01-29T02:34:20.588Z,86.18
2019-01-29T02:35:30.685Z,86.83
2019-01-29T02:36:40.795Z,86.55
2019-01-29T02:37:50.927Z,86.46
2019-01-29T02:39:00.779Z,86.46
2019-01-29T02:40:10.883Z,86.36
2019-01-29T02:41:20.988Z,86.65
2019-01-29T02:42:31.077Z,86.65
2019-01-29T02:43:41.166Z,86.65
2019-01-29T02:44:51.249Z,86.55
2019-01-29T02:46:01.427Z,86.36
2019-01-29T02:47:11.538Z,86.55
2019-01-29T02:48:21.640Z,86.46
2019-01-29T02:49:31.764Z,86.74
2019-01-29T02:50:41.868Z,86.46
2019-01-29T02:51:51.792Z,86.46
2019-01-29T02:53:01.895Z,86.55
2019-01-29T02:54:21.011Z,86.83
2019-01-29T02:55:31.129Z,86.65
2019-01-29T02:56:41.246Z,86.83
2019-01-29T02:57:51.352Z,86.93
2019-01-29T02:59:01.452Z,86.74
2019-01-29T03:00:11.577Z,86.83
2019-01-29T03:01:21.670Z,86.83
2019-01-29T03:02:31.510Z,86.36
2019-01-29T03:03:41.636Z,86.46
2019-01-29T03:04:53.453Z,86.18
2019-01-29T03:06:03.714Z,86.46
2019-01-29T03:07:13.807Z,86.46
2019-01-29T03:08:23.901Z,86.74
2019-01-29T03:09:34.019Z,86.65
2019-01-29T03:10:44.116Z,86.83
2019-01-29T03:11:54.217Z,86.83
2019-01-29T03:13:04.061Z,86.83
2019-01-29T03:14:14.175Z,86.83
2019-01-29T03:15:24.277Z,86.83
2019-01-29T03:16:34.372Z,86.83
2019-01-29T03:17:44.493Z,86.83
2019-01-29T03:18:54.602Z,86.83
2019-01-29T03:20:04.709Z,86.83
2019-01-29T03:21:14.809Z,86.83
2019-01-29T03:22:24.914Z,86.83
2019-01-29T03:23:35.042Z,86.83
2019-01-29T03:24:45.149Z,86.83
2019-01-29T03:25:55.262Z,86.93
2019-01-29T03:27:05.408Z,86.74
2019-01-29T03:28:15.255Z,86.83
2019-01-29T03:29:25.100Z,86.83
2019-01-29T03:30:35.233Z,86.65
2019-01-29T03:31:45.383Z,87.12
2019-01-29T03:32:55.493Z,86.83
2019-01-29T03:34:05.662Z,87.02
2019-01-29T03:35:15.760Z,87.12
2019-01-29T03:36:25.877Z,86.93
2019-01-29T03:37:35.971Z,86.93
2019-01-29T03:38:46.074Z,86.93
2019-01-29T03:39:56.183Z,86.93
2019-01-29T03:41:06.236Z,86.74
2019-01-29T03:42:16.332Z,87.02
2019-01-29T03:43:26.424Z,87.02
2019-01-29T03:44:36.527Z,87.21
2019-01-29T03:45:46.630Z,87.31
2019-01-29T03:46:56.760Z,87.4
2019-01-29T03:48:06.866Z,87.12
2019-01-29T03:49:16.953Z,87.02
2019-01-29T03:50:29.097Z,86.93
2019-01-29T03:51:39.288Z,87.12
2019-01-29T03:52:49.446Z,87.21
2019-01-29T03:53:59.548Z,87.4
2019-01-29T03:55:09.639Z,87.31
2019-01-29T03:56:19.803Z,87.02
2019-01-29T03:57:29.903Z,87.12
2019-01-29T03:58:40.018Z,87.69
2019-01-29T03:59:50.126Z,87.59
2019-01-29T04:01:00.228Z,87.4
2019-01-29T04:02:10.340Z,87.78
2019-01-29T04:03:20.446Z,87.59
2019-01-29T04:04:30.558Z,87.78
2019-01-29T04:05:40.646Z,87.78
2019-01-29T04:06:50.752Z,87.5
2019-01-29T04:08:00.879Z,87.59
2019-01-29T04:09:10.989Z,87.59
2019-01-29T04:10:21.094Z,87.59
2019-01-29T04:11:31.201Z,87.5
2019-01-29T04:12:41.055Z,87.31
2019-01-29T04:13:51.151Z,87.69
2019-01-29T04:15:01.250Z,87.5
2019-01-29T04:16:11.371Z,87.69
2019-01-29T04:17:21.528Z,87.69
2019-01-29T04:18:31.695Z,87.31
2019-01-29T04:19:41.535Z,87.31
2019-01-29T04:20:51.369Z,87.4
2019-01-29T04:22:01.475Z,87.69
2019-01-29T04:23:11.567Z,87.5
2019-01-29T04:24:21.669Z,87.5
2019-01-29T04:25:31.791Z,87.5
2019-01-29T04:26:41.899Z,88.07
2019-01-29T04:27:52.021Z,87.5
2019-01-29T04:29:02.119Z,87.54
2019-01-29T04:30:12.231Z,87.59
2019-01-29T04:31:22.332Z,88.21
2019-01-29T04:32:32.429Z,88.3
2019-01-29T04:33:43.767Z,87.92
2019-01-29T04:34:53.891Z,88.21
2019-01-29T04:36:04.066Z,88.3
2019-01-29T04:37:14.169Z,87.73
2019-01-29T04:38:24.263Z,87.54
2019-01-29T04:39:34.390Z,87.54
2019-01-29T04:40:44.493Z,87.54
2019-01-29T04:41:54.588Z,87.59
2019-01-29T04:43:04.728Z,87.54
2019-01-29T04:44:16.181Z,87.54
2019-01-29T04:45:26.282Z,87.88
2019-01-29T04:46:36.411Z,88.11
2019-01-29T04:47:46.540Z,87.98
2019-01-29T04:48:56.668Z,88.21
2019-01-29T04:50:06.781Z,88.02
2019-01-29T04:51:16.891Z,88.49
2019-01-29T04:52:27.000Z,88.4
2019-01-29T04:53:37.113Z,88.59
2019-01-29T04:54:47.229Z,88.96
2019-01-29T04:55:57.342Z,88.78
2019-01-29T04:57:07.452Z,88.87
2019-01-29T04:58:17.568Z,89.25
2019-01-29T04:59:27.696Z,89.06
2019-01-29T05:00:37.818Z,89.63
2019-01-29T05:01:47.940Z,89.72
2019-01-29T05:02:58.050Z,89.82
2019-01-29T05:04:08.145Z,90.01
2019-01-29T05:05:18.257Z,90.1
2019-01-29T05:06:28.393Z,90.1
2019-01-29T05:07:38.577Z,90.1
2019-01-29T05:08:48.431Z,90.2
2019-01-29T05:09:58.526Z,90.1
2019-01-29T05:11:08.631Z,90.2
2019-01-29T05:12:18.738Z,90.2
2019-01-29T05:13:28.597Z,90.2
2019-01-29T05:14:38.703Z,89.91
2019-01-29T05:15:48.816Z,90.29
2019-01-29T05:16:58.929Z,90.2
2019-01-29T05:18:09.038Z,90.2
2019-01-29T05:19:19.145Z,90.01
2019-01-29T05:20:29.258Z,89.91
2019-01-29T05:21:39.363Z,89.34
2019-01-29T05:22:49.096Z,90.01
2019-01-29T05:24:09.069Z,89.72
2019-01-29T05:25:19.167Z,89.53
2019-01-29T05:26:29.261Z,89.82
2019-01-29T05:27:39.369Z,89.91
2019-01-29T05:28:49.530Z,89.72
2019-01-29T05:29:59.636Z,89.72
2019-01-29T05:31:09.741Z,89.72
2019-01-29T05:32:19.862Z,89.72
2019-01-29T05:33:29.968Z,89.72
2019-01-29T05:34:40.063Z,89.72
2019-01-29T05:35:50.157Z,89.72
2019-01-29T05:37:00.265Z,89.72
2019-01-29T05:38:10.110Z,90.1
2019-01-29T05:39:20.219Z,89.91
2019-01-29T05:40:30.334Z,89.82
2019-01-29T05:41:40.432Z,89.91
2019-01-29T05:42:50.555Z,90.01
2019-01-29T05:44:00.309Z,89.53
2019-01-29T05:45:10.410Z,89.44
2019-01-29T05:46:20.509Z,89.72
2019-01-29T05:47:32.751Z,89.53
2019-01-29T05:48:42.850Z,89.44
2019-01-29T05:49:52.717Z,90.2
2019-01-29T05:51:02.828Z,90.2
2019-01-29T05:52:12.946Z,89.82
2019-01-29T05:53:23.040Z,89.72
2019-01-29T05:54:33.136Z,89.72
2019-01-29T05:55:43.267Z,89.82
2019-01-29T05:56:53.378Z,89.72
2019-01-29T05:58:03.221Z,89.91
2019-01-29T05:59:13.325Z,89.91
2019-01-29T06:00:23.218Z,89.91
2019-01-29T06:01:33.328Z,89.72
2019-01-29T06:02:43.446Z,90.1
2019-01-29T06:03:53.803Z,90.1
2019-01-29T06:05:03.939Z,90.2
2019-01-29T06:06:14.069Z,89.82
2019-01-29T06:07:24.172Z,90.29
2019-01-29T06:08:34.268Z,90.1
2019-01-29T06:09:44.372Z,90.2
2019-01-29T06:10:54.464Z,90.39
2019-01-29T06:12:04.575Z,90.77
2019-01-29T06:13:14.724Z,90.1
2019-01-29T06:14:24.828Z,90.58
2019-01-29T06:15:34.942Z,90.67
2019-01-29T06:16:45.052Z,90.48
2019-01-29T06:17:55.159Z,90.48
2019-01-29T06:19:05.252Z,90.67
2019-01-29T06:20:15.359Z,90.2
2019-01-29T06:21:26.421Z,90.2
2019-01-29T06:22:36.521Z,90.39
2019-01-29T06:23:46.368Z,90.2
2019-01-29T06:24:56.482Z,90.2
2019-01-29T06:26:06.597Z,90.2
2019-01-29T06:27:16.718Z,90.1
2019-01-29T06:28:26.813Z,90.1
2019-01-29T06:29:36.910Z,90.58
2019-01-29T06:30:47.013Z,90.01
2019-01-29T06:31:57.125Z,90.1
2019-01-29T06:33:07.245Z,90.01
2019-01-29T06:34:17.349Z,90.01
2019-01-29T06:35:27.484Z,90.01
2019-01-29T06:36:37.593Z,89.91
2019-01-29T06:37:47.796Z,89.91
2019-01-29T06:38:57.943Z,89.72
2019-01-29T06:40:08.116Z,89.72
2019-01-29T06:41:17.964Z,89.63
2019-01-29T06:42:28.060Z,89.72
2019-01-29T06:43:37.900Z,89.53
2019-01-29T06:44:48.011Z,89.72
2019-01-29T06:45:58.115Z,89.82
2019-01-29T06:47:08.229Z,90.01
2019-01-29T06:48:18.066Z,90.01
2019-01-29T06:49:28.164Z,89.82
2019-01-29T06:50:38.265Z,89.72
2019-01-29T06:51:49.360Z,90.01
2019-01-29T06:52:59.468Z,90.1
2019-01-29T06:54:09.572Z,89.44
2019-01-29T06:55:19.679Z,89.53
2019-01-29T06:56:29.973Z,89.25
2019-01-29T06:57:40.093Z,89.34
2019-01-29T06:58:58.478Z,89.63
2019-01-29T07:00:08.598Z,89.06
2019-01-29T07:01:18.445Z,89.15
2019-01-29T07:02:28.549Z,88.87
2019-01-29T07:03:38.643Z,89.06
2019-01-29T07:04:48.754Z,89.15
2019-01-29T07:05:58.868Z,88.96
2019-01-29T07:07:08.955Z,89.06
2019-01-29T07:08:19.063Z,88.87
2019-01-29T07:09:29.161Z,89.15
2019-01-29T07:10:39.266Z,89.39
2019-01-29T07:11:49.649Z,89.2
2019-01-29T07:12:59.505Z,89.29
2019-01-29T07:14:09.606Z,89.15
2019-01-29T07:15:19.720Z,88.92
2019-01-29T07:16:29.572Z,88.92
2019-01-29T07:17:39.673Z,88.73
2019-01-29T07:18:49.763Z,88.92
2019-01-29T07:19:59.877Z,88.92
2019-01-29T07:21:09.983Z,88.92
2019-01-29T07:22:20.099Z,88.63
2019-01-29T07:23:30.264Z,88.92
2019-01-29T07:24:45.511Z,88.82
2019-01-29T07:25:55.609Z,89.11
2019-01-29T07:27:05.725Z,88.92
2019-01-29T07:28:16.049Z,88.92
2019-01-29T07:29:26.155Z,88.73
2019-01-29T07:30:36.254Z,88.92
2019-01-29T07:31:46.358Z,88.44
2019-01-29T07:32:56.500Z,88.54
2019-01-29T07:34:06.619Z,88.54
2019-01-29T07:35:16.723Z,88.54
2019-01-29T07:36:26.815Z,88.44
2019-01-29T07:37:36.935Z,88.63
2019-01-29T07:38:47.048Z,88.44
2019-01-29T07:39:57.144Z,88.44
2019-01-29T07:41:07.276Z,88.44
2019-01-29T07:42:17.387Z,88.73
2019-01-29T07:43:27.482Z,88.54
2019-01-29T07:44:37.602Z,88.16
2019-01-29T07:45:47.351Z,88.06
2019-01-29T07:46:57.450Z,88.25
2019-01-29T07:48:07.542Z,88.06
2019-01-29T07:49:17.657Z,88.25
2019-01-29T07:50:27.782Z,88.35
2019-01-29T07:51:37.892Z,88.06
2019-01-29T07:52:48.011Z,88.16
2019-01-29T07:53:58.121Z,88.25
2019-01-29T07:55:08.255Z,87.59
2019-01-29T07:56:18.366Z,87.4
2019-01-29T07:57:28.229Z,87.12
2019-01-29T07:58:38.343Z,87.12
2019-01-29T07:59:48.442Z,87.3
2019-01-29T08:00:58.639Z,87.3
2019-01-29T08:02:08.755Z,87.3
2019-01-29T08:03:18.867Z,87.21
2019-01-29T08:04:28.990Z,87.4
2019-01-29T08:05:39.145Z,87.4
2019-01-29T08:06:50.864Z,87.4
2019-01-29T08:08:00.969Z,87.4
2019-01-29T08:09:11.104Z,86.93
2019-01-29T08:10:21.216Z,87.02
2019-01-29T08:11:32.200Z,86.83
2019-01-29T08:12:42.295Z,86.93
2019-01-29T08:13:52.454Z,87.02
2019-01-29T08:15:02.582Z,86.93
2019-01-29T08:16:12.686Z,86.74
2019-01-29T08:17:23.406Z,86.74
2019-01-29T08:18:33.531Z,86.93
2019-01-29T08:19:43.640Z,87.12
2019-01-29T08:20:53.748Z,87.12
2019-01-29T08:22:03.888Z,87.02
2019-01-29T08:23:13.996Z,87.12
2019-01-29T08:24:24.131Z,86.93
2019-01-29T08:25:35.666Z,86.93
2019-01-29T08:26:53.300Z,86.93
2019-01-29T08:28:03.412Z,86.93
2019-01-29T08:29:13.540Z,86.93
2019-01-29T08:30:23.669Z,87.02
2019-01-29T08:31:33.521Z,87.02
2019-01-29T08:32:43.622Z,87.12
2019-01-29T08:33:53.730Z,87.12
2019-01-29T08:35:03.863Z,87.12
2019-01-29T08:36:13.971Z,87.12
2019-01-29T08:37:24.092Z,86.74
2019-01-29T08:38:34.214Z,86.83
2019-01-29T08:39:44.321Z,87.02
2019-01-29T08:40:54.434Z,86.93
2019-01-29T08:42:04.546Z,87.12
2019-01-29T08:43:14.649Z,87.12
2019-01-29T08:44:24.750Z,86.26
2019-01-29T08:45:34.865Z,86.35
2019-01-29T08:46:45.005Z,86.45
2019-01-29T08:47:55.127Z,86.26
2019-01-29T08:49:05.259Z,86.26
2019-01-29T08:50:15.101Z,86.49
2019-01-29T08:51:25.242Z,86.78
2019-01-29T08:52:35.380Z,85.93
2019-01-29T08:53:45.497Z,86.11
2019-01-29T08:54:55.630Z,86.11
2019-01-29T08:56:13.814Z,86.02
2019-01-29T08:57:23.913Z,85.55
2019-01-29T08:58:34.017Z,85.36
2019-01-29T08:59:44.124Z,85.36
2019-01-29T09:00:54.243Z,84.45
2019-01-29T09:02:04.349Z,83.54
2019-01-29T09:03:15.956Z,82.64
2019-01-29T09:04:26.075Z,81.78
2019-01-29T09:05:36.247Z,80.16
2019-01-29T09:06:45.999Z,80.11
2019-01-29T09:07:56.104Z,80.44
2019-01-29T09:09:06.227Z,79.86
2019-01-29T09:10:16.338Z,78
2019-01-29T09:11:26.459Z,76.81
2019-01-29T09:12:36.562Z,76.75
2019-01-29T09:13:46.680Z,75.79
2019-01-29T09:14:56.817Z,75.6
2019-01-29T09:16:06.939Z,74.08
2019-01-29T09:17:17.034Z,73.22
2019-01-29T09:18:27.172Z,72.02
2019-01-29T09:19:37.281Z,70.06
2019-01-29T09:20:47.402Z,70.34
2019-01-29T09:21:57.265Z,70.44
2019-01-29T09:23:07.421Z,70.02
2019-01-29T09:24:17.535Z,70.31
2019-01-29T09:25:27.649Z,69.79
2019-01-29T09:26:37.518Z,70.65
2019-01-29T09:27:47.629Z,71
2019-01-29T09:28:57.758Z,71
2019-01-29T09:30:07.866Z,71.63
2019-01-29T09:31:17.996Z,72.35
2019-01-29T09:32:28.159Z,72.35
2019-01-29T09:33:38.256Z,73.08
2019-01-29T09:34:48.372Z,73.65
2019-01-29T09:35:58.233Z,74.41
2019-01-29T09:37:08.415Z,74.51
2019-01-29T09:38:18.551Z,74.94
2019-01-29T09:39:28.656Z,75.23
2019-01-29T09:40:38.766Z,75.23
2019-01-29T09:41:48.891Z,75.6
2019-01-29T09:42:59.016Z,75.36
2019-01-29T09:44:09.128Z,75.26
2019-01-29T09:45:19.297Z,75.45
2019-01-29T09:46:29.409Z,75.45
2019-01-29T09:47:39.578Z,75.74
2019-01-29T09:48:49.761Z,75.45
2019-01-29T09:49:59.877Z,75.51
2019-01-29T09:51:09.741Z,75.7
2019-01-29T09:52:19.853Z,75.7
2019-01-29T09:53:29.965Z,75.89
2019-01-29T09:54:40.101Z,76.46
2019-01-29T09:55:50.225Z,76.46
2019-01-29T09:57:00.335Z,76.56
2019-01-29T09:58:10.448Z,76.56
2019-01-29T09:59:20.628Z,77.03
2019-01-29T10:00:30.499Z,76.65
2019-01-29T10:01:40.635Z,76.75
2019-01-29T10:02:50.745Z,75.55
2019-01-29T10:04:00.610Z,74.82
2019-01-29T10:05:10.770Z,74.1
2019-01-29T10:06:20.889Z,72.71
2019-01-29T10:07:31.033Z,72.71
2019-01-29T10:08:41.144Z,70.94
2019-01-29T10:09:51.248Z,69.79
2019-01-29T10:11:01.364Z,70.65
2019-01-29T10:13:28.895Z,68.46
2019-01-29T10:14:39.008Z,68.65
2019-01-29T10:15:49.121Z,69.51
2019-01-29T10:16:59.295Z,69.13
2019-01-29T10:18:09.426Z,68.02
2019-01-29T10:19:19.589Z,67.07
2019-01-29T10:20:29.747Z,66.82
2019-01-29T10:21:39.925Z,66.53
2019-01-29T10:22:50.051Z,64.94
2019-01-29T10:24:00.179Z,64.75
2019-01-29T10:25:10.313Z,63.73
2019-01-29T10:26:20.448Z,63.45
2019-01-29T10:27:30.332Z,62.81
2019-01-29T10:28:40.473Z,62.62
2019-01-29T10:29:50.614Z,61.98
2019-01-29T10:31:00.747Z,59.31
2019-01-29T10:32:10.868Z,58.93
2019-01-29T10:33:21.052Z,59.34
2019-01-29T10:34:31.175Z,59.24
2019-01-29T10:35:41.310Z,59.53
2019-01-29T10:36:51.466Z,59.53
2019-01-29T10:38:01.613Z,58.19
2019-01-29T10:39:11.746Z,58.8
2019-01-29T10:40:21.882Z,57.07
2019-01-29T10:41:32.097Z,56.31
2019-01-29T10:42:42.215Z,54.88
2019-01-29T10:43:52.356Z,55.64
2019-01-29T10:45:02.496Z,55.07
2019-01-29T10:46:12.361Z,56.28
2019-01-29T10:47:22.220Z,57.97
2019-01-29T10:48:33.329Z,57.97
2019-01-29T10:49:43.489Z,58.26
2019-01-29T10:50:53.599Z,57.85
2019-01-29T10:52:03.732Z,58.14
2019-01-29T10:53:13.914Z,57.65
2019-01-29T10:54:24.058Z,56.51
2019-01-29T10:55:34.234Z,55.65
2019-01-29T10:56:52.745Z,56.41
2019-01-29T10:58:02.891Z,56.7
2019-01-29T10:59:12.762Z,55.96
2019-01-29T11:00:22.930Z,55.01
2019-01-29T11:01:33.047Z,55.55
2019-01-29T11:02:43.171Z,55.87
2019-01-29T11:03:53.281Z,56.35
2019-01-29T11:05:03.437Z,54.25
2019-01-29T11:06:13.569Z,53.99
2019-01-29T11:07:23.710Z,54.75
2019-01-29T11:08:33.867Z,54.56
2019-01-29T11:09:44.003Z,53.89
2019-01-29T11:10:56.242Z,54.3
2019-01-29T11:12:06.366Z,54.11
2019-01-29T11:13:16.521Z,54.68
2019-01-29T11:14:26.688Z,53.94
2019-01-29T11:15:36.803Z,52.13
2019-01-29T11:16:46.957Z,50.41
2019-01-29T11:17:57.073Z,51.27
2019-01-29T11:19:07.210Z,52.67
2019-01-29T11:20:17.349Z,52.1
2019-01-29T11:21:27.503Z,53.16
2019-01-29T11:22:37.666Z,52.84
2019-01-29T11:23:47.826Z,53.58
2019-01-29T11:24:57.942Z,53.29
2019-01-29T11:26:08.095Z,54
2019-01-29T11:27:18.290Z,54.96
2019-01-29T11:28:28.435Z,55.88
2019-01-29T11:29:38.570Z,56.26
2019-01-29T11:30:48.716Z,56.93
2019-01-29T11:31:58.884Z,56.84
2019-01-29T11:33:09.028Z,57.5
2019-01-29T11:34:20.153Z,56.84
2019-01-29T11:35:30.301Z,56.62
2019-01-29T11:36:40.439Z,57.38
2019-01-29T11:37:50.572Z,58.04
2019-01-29T11:39:00.688Z,58.62
2019-01-29T11:40:10.813Z,59.16
2019-01-29T11:41:22.314Z,59.54
2019-01-29T11:42:32.456Z,59.64
2019-01-29T11:43:42.573Z,60.49
2019-01-29T11:44:52.698Z,60.75
2019-01-29T11:46:02.851Z,60.66
2019-01-29T11:47:12.995Z,61.22
2019-01-29T11:48:23.125Z,60.97
2019-01-29T11:49:33.250Z,60.27
2019-01-29T11:50:43.117Z,60.46
2019-01-29T11:51:53.256Z,61.42
2019-01-29T11:53:03.377Z,61.42
2019-01-29T11:54:13.515Z,61.32
2019-01-29T11:55:23.656Z,61.51
2019-01-29T11:56:33.788Z,61.42
2019-01-29T11:57:43.923Z,61.99
2019-01-29T11:58:54.706Z,61.99
2019-01-29T12:00:04.832Z,61.8
2019-01-29T12:01:14.963Z,61.99
2019-01-29T12:02:30.859Z,61.9
2019-01-29T12:03:40.993Z,62.62
2019-01-29T12:04:50.890Z,62.43
2019-01-29T12:06:01.009Z,63.2
2019-01-29T12:07:11.203Z,63.45
2019-01-29T12:08:22.560Z,64.4
2019-01-29T12:09:32.696Z,64.59
2019-01-29T12:10:42.849Z,65.22
2019-01-29T12:11:52.959Z,65.32
2019-01-29T12:13:04.925Z,66.08
2019-01-29T12:14:15.038Z,66.46
2019-01-29T12:15:25.149Z,66.65
2019-01-29T12:16:35.294Z,66.46
2019-01-29T12:17:45.418Z,67.13
2019-01-29T12:18:55.537Z,67.13
2019-01-29T12:20:06.347Z,67.57
2019-01-29T12:21:16.464Z,67.76
2019-01-29T12:22:26.590Z,67.94
2019-01-29T12:23:36.711Z,67.85
2019-01-29T12:24:46.821Z,67.94
2019-01-29T12:25:56.971Z,67.98
2019-01-29T12:27:15.852Z,68.07
2019-01-29T12:28:25.993Z,68.13
2019-01-29T12:29:36.131Z,67.85
2019-01-29T12:30:46.251Z,67.94
2019-01-29T12:31:56.109Z,68.23
2019-01-29T12:33:06.259Z,68.65
2019-01-29T12:34:17.352Z,68.9
2019-01-29T12:35:27.496Z,69.09
2019-01-29T12:36:37.613Z,68.8
2019-01-29T12:37:47.744Z,68.61
2019-01-29T12:38:58.836Z,68.99
2019-01-29T12:40:08.951Z,69.27
2019-01-29T12:41:19.089Z,69.37
2019-01-29T12:42:28.958Z,69.09
2019-01-29T12:43:39.115Z,68.99
2019-01-29T12:44:49.254Z,68.99
2019-01-29T12:45:59.429Z,69.09
2019-01-29T12:47:09.551Z,69.27
2019-01-29T12:48:19.683Z,69.85
2019-01-29T12:49:29.561Z,69.85
2019-01-29T12:50:39.695Z,69.85
2019-01-29T12:51:49.912Z,70.42
2019-01-29T12:53:00.072Z,69.85
2019-01-29T12:54:11.454Z,70.13
2019-01-29T12:55:21.563Z,69.94
2019-01-29T12:56:31.684Z,70.38
2019-01-29T12:57:41.823Z,70.29
2019-01-29T12:58:51.957Z,70.57
2019-01-29T13:00:02.093Z,70.67
2019-01-29T13:01:12.241Z,70.57
2019-01-29T13:02:22.365Z,71.04
2019-01-29T13:03:32.495Z,71.04
2019-01-29T13:04:42.616Z,71.23
2019-01-29T13:05:52.734Z,71.33
2019-01-29T13:07:02.855Z,71.23
2019-01-29T13:08:12.994Z,71.23
2019-01-29T13:09:23.115Z,71.14
2019-01-29T13:10:33.262Z,71.14
2019-01-29T13:11:43.377Z,71.18
2019-01-29T13:12:53.512Z,70.79
2019-01-29T13:14:04.721Z,71.18
2019-01-29T13:15:14.853Z,70.99
2019-01-29T13:16:24.961Z,70.79
2019-01-29T13:17:35.101Z,70.76
2019-01-29T13:18:45.216Z,70.76
2019-01-29T13:19:55.384Z,70.86
2019-01-29T13:21:05.675Z,71.04
2019-01-29T13:22:15.916Z,71.04
2019-01-29T13:23:26.018Z,71.43
2019-01-29T13:24:36.157Z,71.14
2019-01-29T13:25:46.285Z,71.14
2019-01-29T13:26:56.430Z,71.33
2019-01-29T13:28:06.558Z,71.62
2019-01-29T13:29:16.767Z,71.14
2019-01-29T13:30:27.007Z,71.23
2019-01-29T13:31:37.167Z,71.14
2019-01-29T13:32:47.677Z,71.33
2019-01-29T13:33:57.817Z,71.33
2019-01-29T13:35:07.688Z,71.14
2019-01-29T13:36:17.826Z,71.04
2019-01-29T13:37:28.024Z,71.52
2019-01-29T13:38:38.145Z,71.33
2019-01-29T13:39:48.257Z,71.81
2019-01-29T13:40:58.392Z,71.62
2019-01-29T13:42:08.527Z,71.04
2019-01-29T13:43:18.656Z,71.43
2019-01-29T13:44:28.813Z,71.23
2019-01-29T13:45:38.672Z,70.95
2019-01-29T13:46:50.429Z,70.95
2019-01-29T13:48:00.612Z,70.86
2019-01-29T13:49:10.732Z,70.95
2019-01-29T13:50:20.845Z,71.23
2019-01-29T13:51:30.730Z,71.23
2019-01-29T13:52:40.839Z,71.23
2019-01-29T13:53:50.957Z,71.71
2019-01-29T13:55:01.083Z,71.62
2019-01-29T13:56:11.221Z,71.81
2019-01-29T13:57:21.356Z,71.81
2019-01-29T13:58:31.467Z,71.62
2019-01-29T13:59:41.579Z,72.19
2019-01-29T14:00:51.483Z,72
2019-01-29T14:02:01.394Z,72.19
2019-01-29T14:03:11.558Z,72.28
2019-01-29T14:04:21.813Z,72
2019-01-29T14:05:31.964Z,72
2019-01-29T14:06:42.084Z,72.38
2019-01-29T14:07:52.209Z,72.66
2019-01-29T14:09:02.329Z,72.75
2019-01-29T14:10:12.439Z,72.66
2019-01-29T14:11:22.602Z,72.56
2019-01-29T14:12:32.744Z,72.56
2019-01-29T14:13:43.495Z,73.14
2019-01-29T14:14:53.631Z,73.14
2019-01-29T14:16:03.768Z,72.95
2019-01-29T14:17:13.639Z,73.04
2019-01-29T14:18:23.769Z,73.23
2019-01-29T14:19:33.896Z,73.04
2019-01-29T14:20:44.061Z,72.85
2019-01-29T14:21:54.197Z,73.04
2019-01-29T14:23:04.322Z,72.85
2019-01-29T14:24:14.449Z,72.95
2019-01-29T14:25:24.594Z,73.04
2019-01-29T14:26:34.743Z,72.75
2019-01-29T14:27:52.894Z,72.85
2019-01-29T14:29:03.065Z,72.75
2019-01-29T14:30:13.290Z,73.14
2019-01-29T14:31:23.451Z,73.23
2019-01-29T14:32:33.601Z,73.14
2019-01-29T14:33:44.632Z,73.23
2019-01-29T14:34:54.936Z,73.14
2019-01-29T14:36:05.064Z,73.14
2019-01-29T14:37:24.581Z,73.14
2019-01-29T14:38:34.752Z,73.04
2019-01-29T14:39:44.893Z,73.14
2019-01-29T14:40:55.061Z,73.14
2019-01-29T14:42:06.269Z,73.23
2019-01-29T14:43:16.486Z,73.14
2019-01-29T14:44:26.602Z,73.14
2019-01-29T14:45:36.735Z,73.23
2019-01-29T14:46:46.911Z,72.95
2019-01-29T14:47:57.044Z,73.71
2019-01-29T14:49:07.196Z,72.75
2019-01-29T14:50:17.429Z,72.75
2019-01-29T14:51:27.560Z,73.04
2019-01-29T14:52:37.688Z,73.14
2019-01-29T14:53:47.831Z,73.14
2019-01-29T14:54:57.724Z,73.04
2019-01-29T14:56:08.071Z,72.95
2019-01-29T14:57:18.230Z,73.04
2019-01-29T14:58:28.444Z,73.14
2019-01-29T14:59:39.160Z,73.52
2019-01-29T15:00:49.281Z,72.95
2019-01-29T15:01:59.420Z,73.04
2019-01-29T15:03:11.339Z,73.04
2019-01-29T15:04:21.623Z,72.85
2019-01-29T15:05:31.769Z,73.14
2019-01-29T15:06:41.989Z,73
2019-01-29T15:07:52.099Z,72.95
2019-01-29T15:09:04.760Z,73.04
2019-01-29T15:10:14.951Z,73.04